Time;durP1;ratioP1;P1;durP2;ratioP2;P2;SDS_P1;SDS_P2;PMS_P1;PMS_P2;Temp;Humidity;BMP_temperature;BMP_pressure;BME280_temperature;BME280_humidity;BME280_pressure;Samples;Min_cycle;Max_cycle;Signal;HPM_P1;HPM_P2
2021/03/16 00:00:20;;;;;;;10.03;6.62;;;;;;;6.70;100.00;97650.59;1737593;82;20983;-66
2021/03/16 00:03:09;;;;;;;11.85;6.55;;;;;;;6.69;100.00;97647.55;1740524;82;20982;-66
2021/03/16 00:05:41;;;;;;;11.63;7.40;;;;;;;6.66;100.00;97643.22;1743234;82;21002;-66
2021/03/16 00:08:12;;;;;;;11.57;7.67;;;;;;;6.65;100.00;97642.80;1742104;80;21109;-66
2021/03/16 00:10:44;;;;;;;11.33;8.20;;;;;;;6.61;100.00;97639.33;1740405;82;20967;-66
2021/03/16 00:13:15;;;;;;;12.15;8.13;;;;;;;6.59;100.00;97638.48;1747945;80;21102;-66
2021/03/16 00:15:47;;;;;;;12.40;9.05;;;;;;;6.58;100.00;97633.27;1774392;80;21455;-65
2021/03/16 00:18:21;;;;;;;11.73;8.45;;;;;;;6.58;100.00;97628.89;1763135;80;21546;-65
2021/03/16 00:20:55;;;;;;;14.45;8.15;;;;;;;6.56;100.00;97630.67;1748709;80;20942;-65
2021/03/16 00:23:26;;;;;;;17.12;9.35;;;;;;;6.54;100.00;97623.28;1748759;80;22125;-65
2021/03/16 00:25:59;;;;;;;17.25;10.70;;;;;;;6.54;100.00;97621.97;1773814;80;21141;-65
2021/03/16 00:28:30;;;;;;;17.42;10.32;;;;;;;6.52;100.00;97623.74;1774049;80;21170;-65
2021/03/16 00:31:02;;;;;;;16.35;10.00;;;;;;;6.51;100.00;97624.63;1749992;80;21182;-65
2021/03/16 00:33:37;;;;;;;14.40;8.43;;;;;;;6.48;100.00;97619.88;1774128;80;20943;-66
2021/03/16 00:36:08;;;;;;;12.00;7.62;;;;;;;6.43;100.00;97616.02;1761845;80;22168;-66
2021/03/16 00:38:48;;;;;;;11.63;7.20;;;;;;;6.42;100.00;97619.97;1743174;82;21565;-67
2021/03/16 00:41:19;;;;;;;11.85;7.53;;;;;;;6.42;100.00;97608.18;1743156;82;21140;-66
2021/03/16 00:43:53;;;;;;;10.28;6.85;;;;;;;6.46;100.00;97612.48;1741756;82;20931;-66
2021/03/16 00:46:27;;;;;;;7.62;5.78;;;;;;;6.46;100.00;97609.42;1743233;82;20927;-66
2021/03/16 00:48:59;;;;;;;6.60;5.28;;;;;;;6.48;100.00;97609.41;1743256;82;21375;-66
2021/03/16 00:51:31;;;;;;;8.55;5.55;;;;;;;6.47;100.00;97601.98;1743191;82;25062;-66
2021/03/16 00:54:02;;;;;;;8.08;5.28;;;;;;;6.47;100.00;97599.37;1743169;82;21053;-66
2021/03/16 00:56:34;;;;;;;9.15;4.83;;;;;;;6.46;100.00;97600.70;1743270;82;21595;-65
2021/03/16 00:59:07;;;;;;;5.65;4.60;;;;;;;6.45;100.00;97601.14;1743236;82;21077;-66
2021/03/16 01:01:39;;;;;;;8.40;4.67;;;;;;;6.45;100.00;97593.73;1742561;82;21538;-66
2021/03/16 01:04:10;;;;;;;7.95;5.10;;;;;;;6.46;100.00;97595.46;1741170;81;21073;-66
2021/03/16 01:06:40;;;;;;;8.23;5.37;;;;;;;6.42;100.00;97599.87;1731950;82;21089;-66
2021/03/16 01:09:10;;;;;;;8.05;5.15;;;;;;;6.37;100.00;97599.08;1739500;82;20907;-67
2021/03/16 01:11:44;;;;;;;8.50;5.47;;;;;;;6.34;100.00;97606.98;1743193;82;20939;-66
2021/03/16 01:14:15;;;;;;;7.78;5.30;;;;;;;6.32;100.00;97603.52;1743610;80;21540;-66
2021/03/16 01:16:46;;;;;;;7.40;5.22;;;;;;;6.33;100.00;97589.98;1742887;82;20959;-66
2021/03/16 01:19:17;;;;;;;7.72;4.95;;;;;;;6.31;100.00;97592.63;1749404;80;21512;-66
2021/03/16 01:21:49;;;;;;;6.40;5.28;;;;;;;6.30;100.00;97594.82;1746344;80;20943;-66
2021/03/16 01:24:19;;;;;;;7.03;4.92;;;;;;;6.29;100.00;97587.84;1745928;80;21579;-66
2021/03/16 01:26:51;;;;;;;7.78;4.92;;;;;;;6.25;100.00;97579.17;1738997;81;21006;-65
2021/03/16 01:29:24;;;;;;;7.40;5.27;;;;;;;6.25;100.00;97587.03;1737501;82;21042;-65
2021/03/16 01:31:55;;;;;;;8.33;5.03;;;;;;;6.23;100.00;97590.55;1744683;81;20899;-66
2021/03/16 01:34:26;;;;;;;8.17;5.17;;;;;;;6.23;100.00;97588.80;1749211;81;20947;-66
2021/03/16 01:36:59;;;;;;;8.48;4.83;;;;;;;6.22;100.00;97591.00;1771087;81;21133;-66
2021/03/16 01:39:31;;;;;;;8.23;5.33;;;;;;;6.18;100.00;97583.21;1769249;81;22144;-66
2021/03/16 01:42:08;;;;;;;7.83;5.35;;;;;;;6.18;100.00;97586.69;1737029;82;21018;-66
2021/03/16 01:44:42;;;;;;;6.97;5.53;;;;;;;6.18;100.00;97585.83;1729466;82;21064;-66
2021/03/16 01:47:14;;;;;;;8.35;5.25;;;;;;;6.22;100.00;97591.44;1708179;84;21072;-65
2021/03/16 01:49:47;;;;;;;10.40;5.50;;;;;;;6.19;100.00;97591.05;1674729;85;21093;-66
2021/03/16 01:52:23;;;;;;;10.48;5.22;;;;;;;6.16;100.00;97595.45;1678526;85;21286;-66
2021/03/16 01:54:54;;;;;;;8.83;5.22;;;;;;;6.18;100.00;97601.53;1649440;84;21586;-66
2021/03/16 01:57:38;;;;;;;10.03;5.30;;;;;;;6.21;100.00;97604.11;1836400;76;22718;-65
2021/03/16 02:00:34;;;;;;;7.70;4.97;;;;;;;6.17;100.00;97607.66;1808828;78;20883;-66
2021/03/16 02:03:30;;;;;;;7.10;5.33;;;;;;;6.18;100.00;97610.70;1807116;78;21148;-66
2021/03/16 14:17:24;;;;;;;16.95;12.80;;;;;;;13.18;100.00;97444.64;1837205;76;22017;-66
2021/03/16 14:20:14;;;;;;;14.95;12.43;;;;;;;13.08;100.00;97451.23;1809499;79;20871;-68
2021/03/16 14:23:06;;;;;;;19.07;12.43;;;;;;;13.02;100.00;97455.00;1809480;78;21385;-69
2021/03/16 14:25:53;;;;;;;18.73;12.45;;;;;;;12.96;100.00;97448.64;1809361;78;20915;-71
2021/03/16 14:28:47;;;;;;;18.27;12.15;;;;;;;12.92;100.00;97451.03;1809426;79;21592;-69
2021/03/16 14:31:36;;;;;;;18.35;12.28;;;;;;;12.88;100.00;97446.33;1809403;78;21022;-68
2021/03/16 14:34:24;;;;;;;18.80;13.62;;;;;;;12.88;100.00;97451.62;1809450;78;20899;-68
2021/03/16 14:37:14;;;;;;;20.10;12.55;;;;;;;12.86;100.00;97447.32;1809457;78;21381;-68
2021/03/16 14:40:03;;;;;;;16.55;11.22;;;;;;;12.85;100.00;97449.56;1809398;79;20930;-63
2021/03/16 14:42:53;;;;;;;22.42;11.15;;;;;;;12.79;100.00;97449.83;1809447;78;21476;-68
2021/03/16 14:45:42;;;;;;;20.60;12.13;;;;;;;12.78;100.00;97451.61;1803823;78;20898;-68
2021/03/16 14:48:33;;;;;;;19.85;11.08;;;;;;;12.75;100.00;97453.49;1778754;79;20978;-68
2021/03/16 14:51:21;;;;;;;18.45;10.82;;;;;;;12.73;100.00;97456.66;1793455;79;21190;-67
2021/03/16 14:54:10;;;;;;;17.37;10.10;;;;;;;12.72;100.00;97461.09;1782772;79;21033;-66
2021/03/16 14:56:58;;;;;;;14.47;9.55;;;;;;;12.71;100.00;97466.45;1782674;79;20950;-67
2021/03/16 14:59:46;;;;;;;15.03;9.78;;;;;;;12.72;100.00;97468.17;1782718;79;21073;-66
2021/03/16 15:02:35;;;;;;;13.18;9.50;;;;;;;12.69;100.00;97472.27;1781978;79;20915;-67
2021/03/16 15:05:24;;;;;;;13.53;8.10;;;;;;;12.66;100.00;97471.07;1777415;79;21366;-67
2021/03/16 15:08:13;;;;;;;12.58;8.75;;;;;;;12.63;100.00;97472.52;1786239;79;20923;-68
2021/03/16 15:11:15;;;;;;;14.35;8.80;;;;;;;12.59;100.00;97468.68;1777358;80;20930;-68
2021/03/16 15:14:03;;;;;;;13.70;8.53;;;;;;;12.54;100.00;97471.97;1644951;85;21070;-68
2021/03/16 15:16:51;;;;;;;11.43;8.38;;;;;;;12.53;100.00;97472.89;1645637;85;20955;-69
2021/03/16 15:19:40;;;;;;;11.10;7.30;;;;;;;12.48;100.00;97471.36;1645860;85;21478;-69
2021/03/16 15:22:28;;;;;;;12.90;7.85;;;;;;;12.46;100.00;97482.00;1645900;86;21189;-70
2021/03/16 15:25:16;;;;;;;11.55;7.08;;;;;;;12.41;100.00;97483.97;1645851;85;21150;-68
2021/03/16 15:28:05;;;;;;;10.82;7.12;;;;;;;12.37;100.00;97479.73;1645480;85;21149;-70
2021/03/16 15:30:57;;;;;;;11.63;7.40;;;;;;;12.33;100.00;97476.80;1645459;85;21026;-68
2021/03/16 15:33:46;;;;;;;12.90;7.47;;;;;;;12.30;100.00;97486.18;1645412;86;21542;-67
2021/03/16 15:36:37;;;;;;;11.38;7.55;;;;;;;12.29;100.00;97488.39;1650396;85;21117;-68
2021/03/16 15:39:25;;;;;;;14.65;7.40;;;;;;;12.25;100.00;97496.91;1661564;85;21192;-69
2021/03/16 15:42:14;;;;;;;11.18;6.83;;;;;;;12.19;100.00;97500.25;1649813;85;21267;-67
2021/03/16 15:45:05;;;;;;;10.00;6.58;;;;;;;12.15;100.00;97505.25;1643294;87;21597;-67
2021/03/16 15:47:53;;;;;;;10.58;6.28;;;;;;;12.08;100.00;97507.73;1643494;87;21407;-76
2021/03/16 15:50:42;;;;;;;9.20;5.92;;;;;;;12.03;100.00;97507.05;1643086;87;21255;-66
2021/03/16 15:53:31;;;;;;;9.33;6.15;;;;;;;12.01;100.00;97508.89;1648277;85;21157;-65
2021/03/16 15:56:19;;;;;;;10.38;6.30;;;;;;;12.00;100.00;97507.16;1654706;85;20985;-65
2021/03/16 15:59:08;;;;;;;10.82;6.55;;;;;;;11.97;100.00;97502.39;1656296;85;21040;-67
2021/03/16 16:01:56;;;;;;;10.80;6.42;;;;;;;11.91;100.00;97503.09;1655677;85;21392;-68
2021/03/16 16:04:45;;;;;;;11.48;6.75;;;;;;;11.88;100.00;97506.70;1655703;85;21251;-70
2021/03/16 16:07:34;;;;;;;14.43;6.70;;;;;;;11.86;100.00;97512.97;1648495;85;21211;-66
2021/03/16 16:10:23;;;;;;;11.05;6.72;;;;;;;11.84;100.00;97513.48;1654147;85;21092;-68
2021/03/16 16:13:11;;;;;;;14.63;6.37;;;;;;;11.81;100.00;97522.81;1645968;85;21148;-67
2021/03/16 16:15:59;;;;;;;10.50;5.53;;;;;;;11.84;100.00;97526.70;1640051;86;21193;-68
2021/03/16 16:18:48;;;;;;;7.22;5.42;;;;;;;11.77;100.00;97519.84;1640931;87;21163;-68
2021/03/16 16:21:37;;;;;;;8.95;5.12;;;;;;;11.66;100.00;97526.39;1635909;86;21040;-74
2021/03/16 16:24:27;;;;;;;8.53;5.58;;;;;;;11.61;100.00;97531.43;1641796;86;21196;-70
2021/03/16 16:27:16;;;;;;;7.17;5.33;;;;;;;11.57;100.00;97529.36;1634248;86;21088;-78
2021/03/16 16:30:06;;;;;;;10.75;5.80;;;;;;;11.59;100.00;97530.63;1641329;86;21372;-75
2021/03/16 16:32:53;;;;;;;8.78;5.78;;;;;;;11.58;100.00;97532.86;1640815;86;21231;-74
2021/03/16 16:35:41;;;;;;;10.13;5.67;;;;;;;11.54;100.00;97536.07;1642271;86;21215;-73
2021/03/16 16:38:34;;;;;;;13.57;6.07;;;;;;;11.53;100.00;97536.99;1641078;86;21207;-75
2021/03/16 16:41:25;;;;;;;8.05;5.40;;;;;;;11.48;100.00;97545.53;1642333;87;21235;-74
2021/03/16 16:44:12;;;;;;;11.63;5.72;;;;;;;11.42;100.00;97538.29;1642566;86;21595;-74
2021/03/16 16:47:04;;;;;;;12.47;5.75;;;;;;;11.38;100.00;97548.55;1640925;86;21177;-76
2021/03/16 16:49:51;;;;;;;9.35;5.67;;;;;;;11.31;100.00;97552.69;1638324;87;21587;-75
2021/03/16 16:52:39;;;;;;;11.50;6.05;;;;;;;11.27;100.00;97549.75;1640189;86;21192;-74
2021/03/16 16:55:26;;;;;;;11.33;5.70;;;;;;;11.26;100.00;97551.12;1639703;86;21186;-73
2021/03/16 16:58:14;;;;;;;11.85;6.55;;;;;;;11.22;100.00;97549.05;1642087;87;22233;-76
2021/03/16 17:01:03;;;;;;;15.25;6.12;;;;;;;11.21;100.00;97551.28;1640471;86;20970;-74
2021/03/16 17:03:50;;;;;;;12.25;6.60;;;;;;;11.22;100.00;97556.97;1642608;86;21188;-76
2021/03/16 17:06:43;;;;;;;13.58;5.62;;;;;;;11.22;100.00;97562.70;1642869;86;21133;-74
2021/03/16 17:09:29;;;;;;;12.13;5.28;;;;;;;11.25;100.00;97557.31;1638827;87;21168;-72
2021/03/16 17:12:18;;;;;;;14.28;6.03;;;;;;;11.23;100.00;97560.47;1640363;84;21386;-75
2021/03/16 17:15:08;;;;;;;8.95;5.37;;;;;;;11.20;100.00;97561.44;1642368;85;21201;-76
2021/03/16 17:17:57;;;;;;;11.40;5.47;;;;;;;11.22;100.00;97562.70;1646169;85;21047;-75
2021/03/16 17:20:46;;;;;;;13.72;5.87;;;;;;;11.17;100.00;97556.27;1647930;85;21121;-77
2021/03/16 17:23:36;;;;;;;9.50;4.95;;;;;;;11.12;100.00;97562.61;1645280;85;21557;-75
2021/03/16 17:26:23;;;;;;;12.53;6.17;;;;;;;11.04;100.00;97559.77;1646973;85;21558;-69
2021/03/16 17:29:14;;;;;;;10.80;5.42;;;;;;;11.04;100.00;97559.77;1646241;85;21078;-69
2021/03/16 17:32:03;;;;;;;16.60;6.65;;;;;;;11.00;100.00;97565.20;1646093;86;20974;-70
2021/03/16 17:34:52;;;;;;;12.40;6.70;;;;;;;10.96;100.00;97563.13;1648287;85;21033;-70
2021/03/16 17:37:42;;;;;;;15.40;7.92;;;;;;;10.88;100.00;97560.30;1647581;85;21113;-70
2021/03/16 17:40:31;;;;;;;14.63;7.60;;;;;;;10.80;100.00;97562.32;1649160;86;22379;-67
2021/03/16 17:43:20;;;;;;;17.85;8.40;;;;;;;10.79;100.00;97567.19;1639851;85;21119;-66
2021/03/16 17:46:08;;;;;;;13.20;8.75;;;;;;;10.79;100.00;97567.19;1628856;86;21077;-67
2021/03/16 17:48:57;;;;;;;17.10;9.10;;;;;;;10.81;100.00;97567.55;1646989;85;21131;-66
2021/03/16 17:51:50;;;;;;;14.15;9.00;;;;;;;10.76;100.00;97566.83;1645076;86;21148;-67
2021/03/16 17:54:40;;;;;;;17.67;10.13;;;;;;;10.74;100.00;97569.97;1644978;85;21096;-67
2021/03/16 17:57:29;;;;;;;19.30;9.65;;;;;;;10.73;100.00;97578.80;1645912;85;21504;-73
2021/03/16 18:00:19;;;;;;;16.77;9.78;;;;;;;10.75;100.00;97577.44;1642907;86;21659;-71
2021/03/16 18:03:11;;;;;;;17.50;11.80;;;;;;;10.78;100.00;97570.73;1646988;85;21149;-69
2021/03/16 18:05:58;;;;;;;23.90;12.60;;;;;;;10.80;100.00;97575.51;1645609;85;21109;-69
2021/03/16 18:08:47;;;;;;;20.57;13.53;;;;;;;10.73;100.00;97578.80;1638152;86;21425;-69
2021/03/16 18:11:35;;;;;;;22.75;14.03;;;;;;;10.63;100.00;97580.86;1644878;85;21171;-68
2021/03/16 18:14:23;;;;;;;25.68;14.53;;;;;;;10.57;100.00;97582.83;1650374;84;21261;-68
2021/03/16 18:17:14;;;;;;;23.87;14.00;;;;;;;10.51;100.00;97583.02;1654395;84;21096;-69
2021/03/16 18:20:08;;;;;;;26.80;14.83;;;;;;;10.43;100.00;97580.62;1657013;85;21255;-70
2021/03/16 18:22:57;;;;;;;23.40;15.78;;;;;;;10.36;100.00;97581.23;1652344;84;21295;-69
2021/03/16 18:25:45;;;;;;;28.70;16.75;;;;;;;10.28;100.00;97577.97;1656048;85;21036;-68
2021/03/16 18:28:33;;;;;;;28.87;16.60;;;;;;;10.19;100.00;97591.38;1654218;84;21052;-73
2021/03/16 18:31:22;;;;;;;27.77;17.23;;;;;;;10.13;100.00;97591.56;1646151;85;21213;-73
2021/03/16 18:34:11;;;;;;;32.90;18.55;;;;;;;10.09;100.00;97597.38;1649727;85;21076;-71
2021/03/16 18:37:00;;;;;;;31.23;18.10;;;;;;;10.06;100.00;97598.78;1656332;84;22285;-72
2021/03/16 18:39:49;;;;;;;33.88;21.75;;;;;;;9.92;100.00;97601.37;1656225;84;21143;-71
2021/03/16 18:42:38;;;;;;;37.83;23.22;;;;;;;9.81;100.00;97605.62;1656714;85;20986;-73
2021/03/16 18:45:29;;;;;;;34.40;22.35;;;;;;;9.69;100.00;97602.88;1652590;85;21125;-72
2021/03/16 18:48:20;;;;;;;36.15;22.02;;;;;;;9.59;100.00;97599.22;1652273;85;21530;-73
2021/03/16 18:51:07;;;;;;;41.55;22.62;;;;;;;9.51;100.00;97601.19;1653384;85;21370;-73
2021/03/16 18:53:57;;;;;;;41.63;24.72;;;;;;;9.45;100.00;97597.78;1651743;85;21635;-72
2021/03/16 18:56:46;;;;;;;36.60;24.57;;;;;;;9.35;100.00;97603.33;1652906;84;21049;-72
2021/03/16 18:59:34;;;;;;;40.00;24.87;;;;;;;9.23;100.00;97605.83;1659223;84;21138;-74
2021/03/16 19:02:23;;;;;;;40.17;24.72;;;;;;;9.11;100.00;97607.00;1652322;85;21231;-70
2021/03/16 19:05:12;;;;;;;33.08;23.38;;;;;;;9.08;100.00;97603.13;1654925;85;21377;-71
2021/03/16 19:08:00;;;;;;;35.83;24.15;;;;;;;9.06;100.00;97608.88;1656144;85;21976;-72
2021/03/16 19:10:49;;;;;;;38.15;24.27;;;;;;;9.00;100.00;97607.72;1654431;84;21120;-71
2021/03/16 19:13:39;;;;;;;43.23;26.62;;;;;;;8.95;100.00;97608.70;1653025;84;21076;-71
2021/03/16 19:16:30;;;;;;;38.08;24.27;;;;;;;8.86;100.00;97607.16;1644427;85;21529;-69
2021/03/16 19:19:19;;;;;;;44.13;25.70;;;;;;;8.81;100.00;97613.84;1645789;85;21223;-71
2021/03/16 19:22:08;;;;;;;40.50;27.22;;;;;;;8.77;100.00;97602.98;1644886;85;21568;-70
2021/03/16 19:24:58;;;;;;;40.60;27.20;;;;;;;8.73;100.00;97603.95;1640097;85;21155;-71
2021/03/16 19:27:46;;;;;;;39.80;26.82;;;;;;;8.64;100.00;97610.73;1646029;85;21160;-71
2021/03/16 19:30:35;;;;;;;40.30;25.27;;;;;;;8.67;100.00;97603.23;1646342;85;21200;-73
2021/03/16 19:33:22;;;;;;;37.73;25.90;;;;;;;8.67;100.00;97608.48;1644410;86;21388;-71
2021/03/16 19:36:12;;;;;;;38.88;26.25;;;;;;;8.60;100.00;97609.08;1648567;86;21112;-71
2021/03/16 19:39:01;;;;;;;40.83;27.20;;;;;;;8.54;100.00;97614.48;1646779;85;21105;-65
2021/03/16 19:41:52;;;;;;;37.45;25.92;;;;;;;8.46;100.00;97605.42;1610476;86;21277;-65
2021/03/16 19:44:43;;;;;;;45.38;26.90;;;;;;;8.45;100.00;97604.14;1611742;87;20989;-64
2021/03/16 19:47:32;;;;;;;49.85;29.00;;;;;;;8.41;100.00;97605.97;1637929;86;21414;-64
2021/03/16 19:50:20;;;;;;;50.10;30.70;;;;;;;8.35;100.00;97613.99;1612241;88;21057;-65
2021/03/16 19:53:09;;;;;;;43.73;27.20;;;;;;;8.37;100.00;97604.77;1638106;86;21175;-64
2021/03/16 19:55:57;;;;;;;40.20;26.42;;;;;;;8.39;100.00;97610.84;1638063;85;21196;-65
2021/03/16 19:58:45;;;;;;;41.28;26.52;;;;;;;8.43;100.00;97608.56;1630282;85;20972;-64
2021/03/16 20:01:35;;;;;;;43.28;27.30;;;;;;;8.40;100.00;97610.81;1611986;87;21243;-67
2021/03/16 20:04:24;;;;;;;44.08;27.65;;;;;;;8.40;100.00;97613.89;1635438;86;21219;-63
2021/03/16 20:07:12;;;;;;;46.18;27.17;;;;;;;8.40;100.00;97608.63;1642859;85;21602;-66
2021/03/16 20:10:03;;;;;;;43.33;25.97;;;;;;;8.33;100.00;97607.91;1638738;86;21585;-67
2021/03/16 20:12:51;;;;;;;40.88;26.02;;;;;;;8.31;100.00;97610.12;1643709;85;21184;-65
2021/03/16 20:15:39;;;;;;;37.98;26.20;;;;;;;8.29;100.00;97613.23;1636150;86;21406;-65
2021/03/16 20:18:28;;;;;;;38.25;24.63;;;;;;;8.29;100.00;97614.09;1638132;86;21139;-66
2021/03/16 20:21:17;;;;;;;35.85;23.77;;;;;;;8.29;100.00;97609.28;1635061;86;21309;-65
2021/03/16 20:24:09;;;;;;;37.00;24.63;;;;;;;8.22;100.00;97608.55;1640226;86;21274;-66
2021/03/16 20:26:58;;;;;;;37.78;26.23;;;;;;;8.14;100.00;97615.73;1639943;86;21220;-66
2021/03/16 20:29:47;;;;;;;32.90;22.10;;;;;;;8.04;100.00;97612.44;1639535;86;21322;-65
2021/03/16 20:32:35;;;;;;;36.25;23.12;;;;;;;7.99;100.00;97606.83;1638091;86;21259;-66
2021/03/16 20:35:23;;;;;;;38.20;24.18;;;;;;;7.93;100.00;97601.25;1637495;86;21096;-66
2021/03/16 20:38:12;;;;;;;35.78;24.95;;;;;;;7.88;100.00;97602.66;1628366;87;21194;-66
2021/03/16 20:41:00;;;;;;;45.63;24.75;;;;;;;7.83;100.00;97611.08;1640688;85;20998;-66
2021/03/16 20:43:56;;;;;;;34.23;22.45;;;;;;;7.77;100.00;97610.33;1739995;80;21018;-65
2021/03/16 20:46:44;;;;;;;39.88;22.62;;;;;;;7.75;100.00;97608.19;1738585;80;21104;-63
2021/03/16 20:49:32;;;;;;;35.95;24.50;;;;;;;7.78;100.00;97610.30;1738287;80;21052;-64
2021/03/16 20:52:20;;;;;;;37.98;23.75;;;;;;;7.80;100.00;97606.34;1740008;80;21507;-65
2021/03/16 20:55:11;;;;;;;32.80;22.67;;;;;;;7.80;100.00;97604.58;1740011;80;21166;-66
2021/03/16 20:57:59;;;;;;;32.90;23.10;;;;;;;7.80;100.00;97608.52;1743473;80;21220;-64
2021/03/16 21:00:48;;;;;;;41.75;24.47;;;;;;;7.79;100.00;97610.72;1735658;80;21071;-63
2021/03/16 21:03:35;;;;;;;33.73;22.60;;;;;;;7.78;100.00;97605.05;1722046;83;21038;-63
2021/03/16 21:06:26;;;;;;;38.25;23.92;;;;;;;7.77;100.00;97606.39;1724956;83;20980;-65
2021/03/16 21:09:14;;;;;;;35.80;23.00;;;;;;;7.73;100.00;97604.73;1742902;81;21153;-66
2021/03/16 21:12:07;;;;;;;34.88;23.30;;;;;;;7.70;100.00;97598.22;1742935;81;22215;-64
2021/03/16 21:14:55;;;;;;;32.28;22.48;;;;;;;7.67;100.00;97599.59;1742823;81;21037;-66
2021/03/16 21:17:43;;;;;;;35.38;24.27;;;;;;;7.65;100.00;97600.94;1742742;81;21042;-66
2021/03/16 21:20:32;;;;;;;34.43;23.60;;;;;;;7.62;100.00;97580.00;1684198;85;21678;-65
2021/03/16 21:23:20;;;;;;;39.83;20.72;;;;;;;7.61;100.00;97594.47;1681942;85;21144;-65
2021/03/16 21:26:09;;;;;;;33.63;22.13;;;;;;;7.61;100.00;97591.39;1698847;84;21231;-65
2021/03/16 21:28:57;;;;;;;33.40;22.60;;;;;;;7.61;100.00;97583.97;1698794;84;20989;-65
2021/03/16 21:31:46;;;;;;;42.33;24.63;;;;;;;7.56;100.00;97582.27;1698422;84;21443;-67
2021/03/16 21:34:35;;;;;;;36.28;21.73;;;;;;;7.49;100.00;97585.04;1727699;83;21119;-64
2021/03/16 21:37:24;;;;;;;36.53;21.05;;;;;;;7.41;100.00;97576.45;1727577;83;21051;-67
2021/03/16 21:40:18;;;;;;;31.85;22.22;;;;;;;7.38;100.00;97576.50;1727765;83;21288;-66
2021/03/16 21:43:06;;;;;;;36.50;23.07;;;;;;;7.36;100.00;97575.22;1698655;84;21162;-68
2021/03/16 21:45:54;;;;;;;34.33;22.60;;;;;;;7.43;100.00;97575.97;1698911;84;21151;-71
2021/03/16 21:48:44;;;;;;;28.15;19.48;;;;;;;7.46;100.00;97578.53;1683966;85;21702;-71
2021/03/16 21:51:32;;;;;;;31.00;20.08;;;;;;;7.48;100.00;97576.75;1683580;84;21603;-71
2021/03/16 21:54:21;;;;;;;37.73;22.07;;;;;;;7.48;100.00;97578.06;1702568;83;21218;-70
2021/03/16 21:57:13;;;;;;;37.98;22.50;;;;;;;7.50;100.00;97578.89;1702664;84;21568;-71
2021/03/16 22:00:01;;;;;;;33.42;21.42;;;;;;;7.49;100.00;97579.79;1702409;84;21042;-70
2021/03/16 22:02:50;;;;;;;38.23;21.20;;;;;;;7.47;100.00;97578.51;1702416;84;21168;-70
2021/03/16 22:05:38;;;;;;;35.83;22.42;;;;;;;7.35;100.00;97582.67;1702487;84;21058;-70
2021/03/16 22:08:27;;;;;;;32.93;21.02;;;;;;;7.28;100.00;97577.13;1702444;84;21247;-70
2021/03/16 22:11:15;;;;;;;30.43;21.48;;;;;;;7.21;100.00;97582.06;1702341;83;21161;-71
2021/03/16 22:14:05;;;;;;;28.87;20.77;;;;;;;7.19;100.00;97587.33;1702544;84;21153;-70
2021/03/16 22:16:53;;;;;;;32.28;19.98;;;;;;;7.13;100.00;97582.64;1702487;84;21094;-71
2021/03/16 22:19:41;;;;;;;37.48;21.82;;;;;;;7.13;100.00;97591.82;1681178;84;21176;-71
2021/03/16 22:22:30;;;;;;;38.55;23.92;;;;;;;7.04;100.00;97592.81;1702542;84;21388;-71
2021/03/16 22:25:18;;;;;;;34.98;22.32;;;;;;;6.98;100.00;97588.98;1702329;84;21185;-70
2021/03/16 22:28:06;;;;;;;30.43;19.85;;;;;;;6.89;100.00;97593.06;1702371;84;20939;-70
